createdAt,value
2018-02-20T00:01:14.505Z,101829.87
2018-02-20T00:03:44.418Z,101827.92
2018-02-20T00:06:13.691Z,101826.34
2018-02-20T00:08:42.780Z,101819.72
2018-02-20T00:11:11.856Z,101826.87
2018-02-20T00:13:40.874Z,101826.19
2018-02-20T00:16:10.392Z,101820.25
2018-02-20T00:18:39.642Z,101816.89
2018-02-20T00:21:08.730Z,101802.30
2018-02-20T00:23:37.777Z,101818.56
2018-02-20T00:26:07.396Z,101824.66
2018-02-20T00:28:36.394Z,101808.67
2018-02-20T00:31:05.680Z,101813.75
2018-02-20T00:33:34.788Z,101808.26
2018-02-20T00:36:03.701Z,101809.88
2018-02-20T00:38:32.774Z,101811.91
2018-02-20T00:41:01.642Z,101807.61
2018-02-20T00:43:30.852Z,101806.05
2018-02-20T00:45:59.977Z,101800.09
2018-02-20T00:48:29.210Z,101798.91
2018-02-20T00:50:58.165Z,101807.80
2018-02-20T00:53:27.199Z,101806.05
2018-02-20T00:55:56.217Z,101801.12
2018-02-20T00:58:25.424Z,101792.80
2018-02-20T01:00:54.437Z,101794.12
2018-02-20T01:03:23.950Z,101783.88
2018-02-20T01:05:52.790Z,101782.78
2018-02-20T01:08:21.834Z,101789.51
2018-02-20T01:10:51.250Z,101787.13
2018-02-20T01:13:20.801Z,101778.64
2018-02-20T01:15:49.786Z,101780.41
2018-02-20T01:18:19.172Z,101777.49
2018-02-20T01:20:48.264Z,101771.50
2018-02-20T01:23:17.347Z,101782.05
2018-02-20T01:25:46.666Z,101777.15
2018-02-20T01:28:16.213Z,101770.16
2018-02-20T01:30:45.418Z,101777.53
2018-02-20T01:33:14.564Z,101772.52
2018-02-20T01:35:43.785Z,101761.92
2018-02-20T01:38:13.129Z,101758.66
2018-02-20T01:40:42.056Z,101767.95
2018-02-20T01:43:10.909Z,101759.42
2018-02-20T01:45:39.876Z,101759.94
2018-02-20T01:48:09.318Z,101755.52
2018-02-20T01:50:38.837Z,101756.19
2018-02-20T01:53:08.251Z,101755.05
2018-02-20T01:55:37.516Z,101756.67
2018-02-20T01:58:06.586Z,101747.94
2018-02-20T02:00:35.899Z,101746.68
2018-02-20T02:03:04.822Z,101745.09
2018-02-20T02:05:33.972Z,101757.41
2018-02-20T02:08:03.030Z,101742.78
2018-02-20T02:10:32.532Z,101734.05
2018-02-20T02:13:01.573Z,101743.14
2018-02-20T02:15:30.658Z,101740.52
2018-02-20T02:17:59.689Z,101732.43
2018-02-20T02:20:28.753Z,101728.15
2018-02-20T02:22:57.858Z,101727.55
2018-02-20T02:25:26.910Z,101725.94
2018-02-20T02:27:56.451Z,101726.31
2018-02-20T02:30:25.745Z,101719.81
2018-02-20T02:32:54.982Z,101710.36
2018-02-20T02:35:24.307Z,101711.91
2018-02-20T02:37:53.366Z,101708.48
2018-02-20T02:40:22.909Z,101715.16
2018-02-20T02:42:52.077Z,101715.05
2018-02-20T02:45:21.317Z,101713.09
2018-02-20T02:47:50.808Z,101714.66
2018-02-20T02:50:20.364Z,101707.47
2018-02-20T02:52:49.435Z,101714.79
2018-02-20T02:55:18.956Z,101706.42
2018-02-20T02:57:48.254Z,101701.31
2018-02-20T03:00:17.250Z,101712.64
2018-02-20T03:02:46.478Z,101705.35
2018-02-20T03:05:16.160Z,101705.95
2018-02-20T03:07:45.420Z,101698.75
2018-02-20T03:10:14.486Z,101701.29
2018-02-20T03:12:43.514Z,101698.91
2018-02-20T03:15:12.422Z,101699.99
2018-02-20T03:17:41.498Z,101694.11
2018-02-20T03:20:10.771Z,101704.48
2018-02-20T03:22:40.062Z,101702.77
2018-02-20T03:25:09.394Z,101692.31
2018-02-20T03:27:38.468Z,101694.67
2018-02-20T03:30:07.337Z,101692.98
2018-02-20T03:32:36.379Z,101684.87
2018-02-20T03:35:05.377Z,101690.39
2018-02-20T03:37:34.678Z,101682.20
2018-02-20T03:40:03.858Z,101693.92
2018-02-20T03:42:32.825Z,101700.12
2018-02-20T03:45:01.959Z,101694.96
2018-02-20T03:47:31.232Z,101699.03
2018-02-20T03:50:00.562Z,101694.59
2018-02-20T03:52:29.516Z,101684.45
2018-02-20T03:54:58.542Z,101690.30
2018-02-20T03:57:27.649Z,101693.83
2018-02-20T03:59:56.876Z,101689.50
2018-02-20T04:02:26.142Z,101696.89
2018-02-20T04:04:55.076Z,101691.09
2018-02-20T04:07:24.284Z,101677.70
2018-02-20T04:09:53.637Z,101682.98
2018-02-20T04:12:22.638Z,101687.27
2018-02-20T04:14:51.913Z,101685.98
2018-02-20T04:17:20.807Z,101676.60
2018-02-20T04:19:49.718Z,101683.96
2018-02-20T04:22:18.868Z,101682.76
2018-02-20T04:24:47.792Z,101683.66
2018-02-20T04:27:17.095Z,101689.98
2018-02-20T04:29:46.230Z,101688.44
2018-02-20T04:32:15.540Z,101687.59
2018-02-20T04:34:44.626Z,101681.91
2018-02-20T04:37:13.819Z,101680.92
2018-02-20T04:39:43.344Z,101694.91
2018-02-20T04:42:12.623Z,101688.55
2018-02-20T04:44:41.623Z,101696.73
2018-02-20T04:47:10.711Z,101697.27
2018-02-20T04:49:39.924Z,101687.80
2018-02-20T04:52:08.950Z,101702.36
2018-02-20T04:54:38.827Z,101700.07
2018-02-20T04:57:07.934Z,101696.46
2018-02-20T04:59:37.009Z,101696.85
2018-02-20T05:02:06.524Z,101696.03
2018-02-20T05:04:35.428Z,101694.99
2018-02-20T05:07:04.640Z,101690.09
2018-02-20T05:09:33.890Z,101689.20
2018-02-20T05:12:03.217Z,101699.23
2018-02-20T05:14:32.137Z,101700.33
2018-02-20T05:17:01.035Z,101699.62
2018-02-20T05:19:30.042Z,101692.61
2018-02-20T05:21:59.186Z,101702.05
2018-02-20T05:24:28.186Z,101694.41
2018-02-20T05:26:57.295Z,101693.99
2018-02-20T05:29:26.300Z,101693.16
2018-02-20T05:31:55.466Z,101698.88
2018-02-20T05:34:24.542Z,101697.71
2018-02-20T05:36:53.521Z,101702.73
2018-02-20T05:39:22.858Z,101698.69
2018-02-20T05:41:51.947Z,101704.14
2018-02-20T05:44:21.217Z,101706.87
2018-02-20T05:46:50.258Z,101711.13
2018-02-20T05:49:19.515Z,101713.52
2018-02-20T05:51:48.815Z,101710.02
2018-02-20T05:54:18.112Z,101705.23
2018-02-20T05:56:47.445Z,101703.47
2018-02-20T05:59:16.532Z,101712.39
2018-02-20T06:01:45.648Z,101707.86
2018-02-20T06:04:14.580Z,101712.32
2018-02-20T06:06:43.916Z,101708.82
2018-02-20T06:09:12.798Z,101708.59
2018-02-20T06:11:42.135Z,101716.66
2018-02-20T06:14:11.109Z,101720.30
2018-02-20T06:16:40.024Z,101718.96
2018-02-20T06:19:08.895Z,101715.44
2018-02-20T06:21:37.897Z,101715.69
2018-02-20T06:24:06.814Z,101717.45
2018-02-20T06:26:35.993Z,101711.70
2018-02-20T06:29:05.273Z,101700.35
2018-02-20T06:31:34.530Z,101708.04
2018-02-20T06:34:03.721Z,101709.30
2018-02-20T06:36:33.299Z,101703.70
2018-02-20T06:39:01.965Z,101706.20
2018-02-20T06:41:30.850Z,101704.73
2018-02-20T06:44:00.023Z,101703.30
2018-02-20T06:46:29.702Z,101698.76
2018-02-20T06:48:59.087Z,101695.36
2018-02-20T06:51:28.439Z,101699.02
2018-02-20T06:53:57.509Z,101699.05
2018-02-20T06:56:26.673Z,101697.16
2018-02-20T06:58:55.966Z,101698.95
2018-02-20T07:01:24.878Z,101705.97
2018-02-20T07:03:53.948Z,101703.97
2018-02-20T07:06:23.328Z,101705.34
2018-02-20T07:08:52.413Z,101706.36
2018-02-20T07:11:21.753Z,101701.22
2018-02-20T07:13:50.794Z,101703.11
2018-02-20T07:16:19.882Z,101703.63
2018-02-20T07:18:49.470Z,101699.45
2018-02-20T07:21:18.566Z,101707.50
2018-02-20T07:23:47.589Z,101697.39
2018-02-20T07:26:16.678Z,101691.39
2018-02-20T07:28:45.719Z,101693.99
2018-02-20T07:31:14.961Z,101696.20
2018-02-20T07:33:43.913Z,101691.33
2018-02-20T07:36:13.029Z,101696.53
2018-02-20T07:38:42.382Z,101700.16
2018-02-20T07:41:11.957Z,101690.87
2018-02-20T07:43:40.821Z,101692.58
2018-02-20T07:46:09.945Z,101693.12
2018-02-20T07:48:39.101Z,101689.42
2018-02-20T07:51:08.614Z,101694.91
2018-02-20T07:53:37.866Z,101693.92
2018-02-20T07:56:06.894Z,101685.17
2018-02-20T07:58:36.181Z,101685.90
2018-02-20T08:01:05.424Z,101692.25
2018-02-20T08:03:34.400Z,101686.52
2018-02-20T08:06:03.493Z,101691.14
2018-02-20T08:08:32.671Z,101685.84
2018-02-20T08:11:01.724Z,101690.27
2018-02-20T08:13:30.985Z,101693.45
2018-02-20T08:16:00.101Z,101689.97
2018-02-20T08:18:29.267Z,101683.27
2018-02-20T08:20:58.411Z,101679.01
2018-02-20T08:23:27.602Z,101687.36
2018-02-20T08:25:57.062Z,101674.58
2018-02-20T08:28:26.358Z,101678.06
2018-02-20T08:30:55.515Z,101675.41
2018-02-20T08:33:24.889Z,101679.61
2018-02-20T08:35:54.193Z,101683.51
2018-02-20T08:38:23.129Z,101672.59
2018-02-20T08:40:52.532Z,101684.19
2018-02-20T08:43:21.385Z,101687.44
2018-02-20T08:45:50.456Z,101685.80
2018-02-20T08:48:19.673Z,101685.50
2018-02-20T08:50:48.722Z,101677.72
2018-02-20T08:53:17.966Z,101670.61
2018-02-20T08:55:47.101Z,101675.44
2018-02-20T08:58:16.392Z,101671.46
2018-02-20T09:00:45.644Z,101681.69
2018-02-20T09:03:15.269Z,101668.72
2018-02-20T09:05:44.352Z,101672.81
2018-02-20T09:08:13.624Z,101668.75
2018-02-20T09:10:43.041Z,101669.48
2018-02-20T09:13:12.117Z,101669.65
2018-02-20T09:15:41.660Z,101680.40
2018-02-20T09:18:10.847Z,101681.15
2018-02-20T09:20:39.830Z,101681.73
2018-02-20T09:23:08.927Z,101672.55
2018-02-20T09:25:38.346Z,101674.24
2018-02-20T09:28:07.529Z,101678.30
2018-02-20T09:30:36.543Z,101664.70
2018-02-20T09:33:05.771Z,101658.45
2018-02-20T09:35:34.795Z,101660.67
2018-02-20T09:38:03.897Z,101656.77
2018-02-20T09:40:33.283Z,101652.48
2018-02-20T09:43:02.270Z,101646.69
2018-02-20T09:45:31.974Z,101643.09
2018-02-20T09:48:01.083Z,101650.15
2018-02-20T09:50:30.189Z,101642.89
2018-02-20T09:52:59.529Z,101641.84
2018-02-20T09:55:28.569Z,101642.41
2018-02-20T09:57:58.009Z,101637.55
2018-02-20T10:00:27.945Z,101636.47
2018-02-20T10:02:57.007Z,101628.90
2018-02-20T10:05:26.138Z,101625.06
2018-02-20T10:07:55.336Z,101627.11
2018-02-20T10:10:24.570Z,101622.63
2018-02-20T10:12:53.759Z,101617.94
2018-02-20T10:15:22.872Z,101619.53
2018-02-20T10:17:52.035Z,101621.23
2018-02-20T10:20:21.357Z,101616.22
2018-02-20T10:22:50.622Z,101624.70
2018-02-20T10:25:19.925Z,101620.39
2018-02-20T10:27:49.260Z,101614.55
2018-02-20T10:30:18.244Z,101606.54
2018-02-20T10:32:47.723Z,101608.39
2018-02-20T10:35:17.301Z,101607.42
2018-02-20T10:37:46.502Z,101609.73
2018-02-20T10:40:16.042Z,101601.62
2018-02-20T10:42:45.238Z,101599.61
2018-02-20T10:45:14.278Z,101608.70
2018-02-20T10:47:43.293Z,101603.83
2018-02-20T10:50:12.644Z,101599.81
2018-02-20T10:52:42.148Z,101594.08
2018-02-20T10:55:11.264Z,101590.79
2018-02-20T10:57:40.701Z,101593.02
2018-02-20T11:00:10.096Z,101584.05
2018-02-20T11:02:39.552Z,101566.55
2018-02-20T11:05:08.485Z,101578.86
2018-02-20T11:07:37.644Z,101568.77
2018-02-20T11:10:07.149Z,101568.63
2018-02-20T11:12:36.279Z,101560.86
2018-02-20T11:15:05.502Z,101580.14
2018-02-20T11:17:34.963Z,101560.55
2018-02-20T11:20:04.463Z,101540.40
2018-02-20T11:22:33.642Z,101573.76
2018-02-20T11:25:03.077Z,101560.98
2018-02-20T11:27:32.349Z,101562.17
2018-02-20T11:30:01.653Z,101568.81
2018-02-20T11:32:30.971Z,101567.02
2018-02-20T11:35:00.078Z,101558.70
2018-02-20T11:37:29.238Z,101563.72
2018-02-20T11:39:58.610Z,101562.36
2018-02-20T11:42:27.970Z,101564.42
2018-02-20T11:44:57.438Z,101554.34
2018-02-20T11:47:26.513Z,101552.08
2018-02-20T11:49:55.652Z,101555.66
2018-02-20T11:52:24.970Z,101558.60
2018-02-20T11:54:54.052Z,101560.30
2018-02-20T11:57:23.130Z,101549.95
2018-02-20T11:59:52.293Z,101558.16
2018-02-20T12:02:21.665Z,101561.38
2018-02-20T12:04:50.844Z,101544.83
2018-02-20T12:07:20.139Z,101545.40
2018-02-20T12:09:49.872Z,101540.94
2018-02-20T12:12:18.933Z,101544.83
2018-02-20T12:14:48.273Z,101541.21
2018-02-20T12:17:17.438Z,101536.52
2018-02-20T12:19:46.491Z,101535.82
2018-02-20T12:22:15.342Z,101528.00
2018-02-20T12:24:44.631Z,101533.01
2018-02-20T12:27:14.190Z,101533.48
2018-02-20T12:29:43.340Z,101532.17
2018-02-20T12:32:12.354Z,101533.45
2018-02-20T12:34:41.725Z,101530.39
2018-02-20T12:37:11.782Z,101524.82
2018-02-20T12:39:40.872Z,101521.58
2018-02-20T12:42:10.659Z,101530.52
2018-02-20T12:44:39.703Z,101521.71
2018-02-20T12:47:08.878Z,101526.66
2018-02-20T12:49:38.218Z,101530.50
2018-02-20T12:52:07.356Z,101528.70
2018-02-20T12:54:36.656Z,101525.08
2018-02-20T12:57:05.655Z,101526.87
2018-02-20T12:59:34.802Z,101516.48
2018-02-20T13:02:04.352Z,101525.27
2018-02-20T13:04:33.639Z,101511.79
2018-02-20T13:07:02.757Z,101516.52
2018-02-20T13:09:32.295Z,101517.61
2018-02-20T13:12:01.647Z,101509.72
2018-02-20T13:14:31.084Z,101510.27
2018-02-20T13:17:00.344Z,101498.72
2018-02-20T13:19:29.757Z,101498.73
2018-02-20T13:21:59.192Z,101500.02
2018-02-20T13:24:28.405Z,101492.19
2018-02-20T13:26:57.593Z,101496.66
2018-02-20T13:29:27.397Z,101506.65
2018-02-20T13:31:56.704Z,101496.11
2018-02-20T13:34:26.052Z,101500.98
2018-02-20T13:36:56.424Z,101508.07
2018-02-20T13:39:25.594Z,101503.70
2018-02-20T13:41:55.642Z,101500.09
2018-02-20T13:44:25.472Z,101509.95
2018-02-20T13:46:54.366Z,101500.40
2018-02-20T13:49:23.604Z,101491.91
2018-02-20T13:51:52.915Z,101502.69
2018-02-20T13:54:22.088Z,101491.80
2018-02-20T13:56:51.723Z,101498.84
2018-02-20T13:59:21.024Z,101490.32
2018-02-20T14:01:50.217Z,101495.22
2018-02-20T14:04:19.345Z,101488.09
2018-02-20T14:06:48.548Z,101492.62
2018-02-20T14:09:17.922Z,101485.95
2018-02-20T14:11:47.426Z,101486.42
2018-02-20T14:14:16.640Z,101487.98
2018-02-20T14:16:45.806Z,101488.06
2018-02-20T14:19:15.765Z,101486.11
2018-02-20T14:21:45.447Z,101486.91
2018-02-20T14:24:14.656Z,101488.88
2018-02-20T14:26:43.746Z,101489.95
2018-02-20T14:29:13.052Z,101489.76
2018-02-20T14:31:41.960Z,101490.93
2018-02-20T14:34:11.007Z,101486.73
2018-02-20T14:36:40.266Z,101476.75
2018-02-20T14:39:09.518Z,101476.94
2018-02-20T14:41:39.546Z,101473.95
2018-02-20T14:44:09.153Z,101474.24
2018-02-20T14:46:38.285Z,101476.12
2018-02-20T14:49:07.510Z,101468.11
2018-02-20T14:51:37.168Z,101472.12
2018-02-20T14:54:06.560Z,101473.53
2018-02-20T14:56:35.865Z,101469.70
2018-02-20T14:59:06.013Z,101476.03
2018-02-20T15:01:35.522Z,101468.52
2018-02-20T15:04:04.546Z,101473.91
2018-02-20T15:06:33.405Z,101469.37
2018-02-20T15:09:02.667Z,101475.55
2018-02-20T15:11:31.860Z,101474.66
2018-02-20T15:14:01.170Z,101478.87
2018-02-20T15:16:30.513Z,101476.92
2018-02-20T15:19:00.078Z,101479.94
2018-02-20T15:21:29.442Z,101471.81
2018-02-20T15:23:59.715Z,101479.24
2018-02-20T15:26:29.203Z,101471.41
2018-02-20T15:28:58.521Z,101467.84
2018-02-20T15:31:27.498Z,101473.45
2018-02-20T15:33:56.749Z,101473.77
2018-02-20T15:36:25.795Z,101466.20
2018-02-20T15:38:55.253Z,101463.95
2018-02-20T15:41:24.879Z,101462.39
2018-02-20T15:43:54.174Z,101474.97
2018-02-20T15:46:23.519Z,101472.25
2018-02-20T15:48:53.157Z,101473.16
2018-02-20T15:51:22.427Z,101464.83
2018-02-20T15:53:51.439Z,101468.97
2018-02-20T15:56:20.983Z,101469.09
2018-02-20T15:58:50.296Z,101473.05
2018-02-20T16:01:19.829Z,101480.05
2018-02-20T16:03:49.254Z,101477.08
2018-02-20T16:06:18.521Z,101470.78
2018-02-20T16:08:47.498Z,101480.25
2018-02-20T16:11:16.517Z,101477.00
2018-02-20T16:13:45.565Z,101481.72
2018-02-20T16:16:24.844Z,101473.61
2018-02-20T16:18:53.978Z,101472.27
2018-02-20T16:21:23.855Z,101463.45
2018-02-20T16:23:52.889Z,101470.65
2018-02-20T16:26:22.222Z,101470.84
2018-02-20T16:28:51.605Z,101465.62
2018-02-20T16:31:20.968Z,101470.91
2018-02-20T16:33:50.558Z,101468.27
2018-02-20T16:36:19.591Z,101468.76
2018-02-20T16:38:48.430Z,101465.86
2018-02-20T16:41:17.404Z,101474.07
2018-02-20T16:43:46.849Z,101471.22
2018-02-20T16:46:15.870Z,101466.55
2018-02-20T16:48:44.921Z,101471.06
2018-02-20T16:51:14.343Z,101475.14
2018-02-20T16:53:43.259Z,101473.55
2018-02-20T16:56:12.661Z,101466.24
2018-02-20T16:58:41.867Z,101474.34
2018-02-20T17:01:11.126Z,101475.59
2018-02-20T17:03:40.548Z,101474.19
2018-02-20T17:06:09.952Z,101475.95
2018-02-20T17:08:39.139Z,101482.45
2018-02-20T17:11:08.238Z,101480.66
2018-02-20T17:13:37.447Z,101478.89
2018-02-20T17:16:06.535Z,101478.59
2018-02-20T17:18:35.643Z,101478.63
2018-02-20T17:21:04.746Z,101486.04
2018-02-20T17:23:33.678Z,101470.84
2018-02-20T17:26:02.674Z,101472.30
2018-02-20T17:28:31.964Z,101475.64
2018-02-20T17:31:01.027Z,101477.50
2018-02-20T17:33:30.519Z,101471.69
2018-02-20T17:35:59.750Z,101476.86
2018-02-20T17:38:29.108Z,101474.30
2018-02-20T17:40:58.141Z,101479.86
2018-02-20T17:43:27.191Z,101478.44
2018-02-20T17:45:56.159Z,101477.37
2018-02-20T17:48:25.783Z,101480.47
2018-02-20T17:50:54.762Z,101479.42
2018-02-20T17:53:24.022Z,101482.47
2018-02-20T17:55:53.674Z,101480.55
2018-02-20T17:58:22.726Z,101474.53
2018-02-20T18:00:51.819Z,101472.59
2018-02-20T18:03:21.203Z,101482.41
2018-02-20T18:05:50.582Z,101465.77
2018-02-20T18:08:19.628Z,101472.38
2018-02-20T18:10:48.798Z,101466.59
2018-02-20T18:13:17.836Z,101469.41
2018-02-20T18:15:47.150Z,101471.53
2018-02-20T18:18:16.193Z,101476.45
2018-02-20T18:20:45.369Z,101479.92
2018-02-20T18:23:14.298Z,101489.83
2018-02-20T18:25:43.413Z,101485.79
2018-02-20T18:28:12.639Z,101489.39
2018-02-20T18:30:41.774Z,101483.97
2018-02-20T18:33:10.759Z,101490.79
2018-02-20T18:35:39.885Z,101489.20
2018-02-20T18:38:08.924Z,101495.41
2018-02-20T18:40:37.886Z,101485.64
2018-02-20T18:43:07.193Z,101490.79
2018-02-20T18:45:36.509Z,101489.14
2018-02-20T18:48:06.047Z,101486.26
2018-02-20T18:50:35.078Z,101496.52
2018-02-20T18:53:04.384Z,101494.75
2018-02-20T18:55:33.658Z,101488.83
2018-02-20T18:58:02.957Z,101491.72
2018-02-20T19:00:32.161Z,101471.25
2018-02-20T19:03:01.232Z,101488.83
2018-02-20T19:05:30.580Z,101491.97
2018-02-20T19:07:59.445Z,101486.41
2018-02-20T19:10:28.439Z,101486.55
2018-02-20T19:12:57.709Z,101480.90
2018-02-20T19:15:27.038Z,101478.65
2018-02-20T19:17:56.960Z,101472.66
2018-02-20T19:20:26.042Z,101469.24
2018-02-20T19:22:55.584Z,101460.56
2018-02-20T19:25:24.658Z,101470.11
2018-02-20T19:27:53.737Z,101473.83
2018-02-20T19:30:22.667Z,101470.11
2018-02-20T19:32:51.714Z,101471.64
2018-02-20T19:35:20.886Z,101471.46
2018-02-20T19:37:50.133Z,101480.05
2018-02-20T19:40:19.214Z,101482.48
2018-02-20T19:42:48.406Z,101466.98
2018-02-20T19:45:17.582Z,101475.45
2018-02-20T19:47:46.786Z,101477.47
2018-02-20T19:50:16.053Z,101479.95
2018-02-20T19:52:45.342Z,101473.56
2018-02-20T19:55:14.701Z,101476.17
2018-02-20T19:57:43.875Z,101473.91
2018-02-20T20:00:13.103Z,101465.29
2018-02-20T20:02:42.073Z,101468.63
2018-02-20T20:05:11.066Z,101477.08
2018-02-20T20:07:40.343Z,101474.19
2018-02-20T20:10:09.371Z,101467.89
2018-02-20T20:12:38.335Z,101461.66
2018-02-20T20:15:07.683Z,101463.42
2018-02-20T20:17:36.878Z,101462.40
2018-02-20T20:20:06.121Z,101463.58
2018-02-20T20:22:35.318Z,101471.86
2018-02-20T20:25:04.310Z,101462.27
2018-02-20T20:27:33.326Z,101455.29
2018-02-20T20:30:02.625Z,101454.05
2018-02-20T20:32:31.994Z,101449.28
2018-02-20T20:35:00.928Z,101457.69
2018-02-20T20:37:30.306Z,101450.02
2018-02-20T20:39:59.663Z,101454.25
2018-02-20T20:42:28.973Z,101443.28
2018-02-20T20:44:58.410Z,101444.06
2018-02-20T20:47:27.670Z,101456.14
2018-02-20T20:49:57.164Z,101438.16
2018-02-20T20:52:26.349Z,101433.23
2018-02-20T20:54:55.633Z,101442.31
2018-02-20T20:57:25.022Z,101446.40
2018-02-20T20:59:54.213Z,101451.11
2018-02-20T21:02:23.434Z,101442.20
2018-02-20T21:04:52.598Z,101437.03
2018-02-20T21:07:21.629Z,101442.88
2018-02-20T21:09:50.636Z,101448.77
2018-02-20T21:12:19.774Z,101448.44
2018-02-20T21:14:48.842Z,101441.02
2018-02-20T21:17:17.969Z,101442.98
2018-02-20T21:19:47.213Z,101445.08
2018-02-20T21:22:16.506Z,101450.19
2018-02-20T21:24:45.801Z,101443.66
2018-02-20T21:27:15.254Z,101450.97
2018-02-20T21:29:44.677Z,101451.42
2018-02-20T21:32:13.830Z,101446.13
2018-02-20T21:34:43.193Z,101447.09
2018-02-20T21:37:12.451Z,101444.91
2018-02-20T21:39:41.509Z,101443.95
2018-02-20T21:42:10.513Z,101443.15
2018-02-20T21:44:39.667Z,101433.01
2018-02-20T21:47:08.949Z,101446.05
2018-02-20T21:49:38.110Z,101443.20
2018-02-20T21:52:07.262Z,101450.55
2018-02-20T21:54:36.330Z,101452.33
2018-02-20T21:57:05.554Z,101446.11
2018-02-20T21:59:34.869Z,101445.26
2018-02-20T22:02:04.127Z,101443.11
2018-02-20T22:04:33.558Z,101441.41
2018-02-20T22:07:02.837Z,101437.38
2018-02-20T22:09:32.235Z,101443.67
2018-02-20T22:12:02.103Z,101440.16
2018-02-20T22:14:31.581Z,101437.84
2018-02-20T22:17:01.054Z,101439.81
2018-02-20T22:19:30.441Z,101434.64
2018-02-20T22:21:59.670Z,101426.25
2018-02-20T22:24:28.851Z,101442.20
2018-02-20T22:26:58.061Z,101427.91
2018-02-20T22:29:27.153Z,101427.55
2018-02-20T22:31:56.658Z,101433.97
2018-02-20T22:34:25.969Z,101421.32
2018-02-20T22:36:55.031Z,101423.47
2018-02-20T22:39:24.234Z,101423.58
2018-02-20T22:41:53.351Z,101410.09
2018-02-20T22:44:22.538Z,101424.72
2018-02-20T22:46:51.817Z,101416.52
2018-02-20T22:49:20.986Z,101422.74
2018-02-20T22:51:50.273Z,101425.42
2018-02-20T22:54:19.339Z,101415.99
2018-02-20T22:56:48.698Z,101416.34
2018-02-20T22:59:17.645Z,101420.42
2018-02-20T23:01:46.990Z,101415.64
2018-02-20T23:04:16.499Z,101419.22
2018-02-20T23:06:46.040Z,101418.04
2018-02-20T23:09:15.352Z,101418.42
2018-02-20T23:11:48.333Z,101412.58
2018-02-20T23:14:17.943Z,101415.14
2018-02-20T23:16:47.021Z,101417.23
2018-02-20T23:19:16.421Z,101406.30
2018-02-20T23:21:45.891Z,101411.84
2018-02-20T23:24:15.101Z,101408.47
2018-02-20T23:26:44.374Z,101403.47
2018-02-20T23:29:13.750Z,101403.41
2018-02-20T23:31:43.010Z,101410.25
2018-02-20T23:34:12.389Z,101405.09
2018-02-20T23:36:41.522Z,101401.02
2018-02-20T23:39:10.928Z,101398.13
2018-02-20T23:41:40.846Z,101396.77
2018-02-20T23:44:09.985Z,101394.42
2018-02-20T23:46:39.566Z,101387.91
2018-02-20T23:49:08.831Z,101388.81
2018-02-20T23:51:38.023Z,101391.55
2018-02-20T23:54:07.685Z,101393.91
2018-02-20T23:56:36.833Z,101394.08
2018-02-20T23:59:06.190Z,101387.63
